createdAt,value
2022-11-08T00:01:37.630Z,99172.24
2022-11-08T00:04:49.603Z,99188.06
2022-11-08T00:08:16.107Z,99185.43
2022-11-08T00:11:42.845Z,99192.41
2022-11-08T00:14:54.743Z,99185.43
2022-11-08T00:18:06.660Z,99188.17
2022-11-08T00:21:18.739Z,99192.06
2022-11-08T00:24:30.902Z,99191.61
2022-11-08T00:27:42.794Z,99191.19
2022-11-08T00:30:54.636Z,99189.77
2022-11-08T00:34:06.600Z,99196.09
2022-11-08T00:37:18.870Z,99196.39
2022-11-08T00:40:30.586Z,99189.52
2022-11-08T00:43:42.490Z,99187.64
2022-11-08T00:46:54.686Z,99176.07
2022-11-08T00:50:06.594Z,99184.61
2022-11-08T00:53:18.764Z,99183.22
2022-11-08T00:56:30.872Z,99178.17
2022-11-08T00:59:42.659Z,99174.80
2022-11-08T01:02:57.180Z,99185.50
2022-11-08T01:06:13.138Z,99191.73
2022-11-08T01:09:24.934Z,99180.34
2022-11-08T01:12:36.867Z,99184.22
2022-11-08T01:15:51.757Z,99180.09
2022-11-08T01:19:04.737Z,99178.50
2022-11-08T01:22:16.477Z,99175.97
2022-11-08T01:25:28.205Z,99179.63
2022-11-08T01:28:40.922Z,99179.92
2022-11-08T01:31:52.621Z,99179.92
2022-11-08T01:35:04.409Z,99180.23
2022-11-08T01:38:18.547Z,99176.75
2022-11-08T01:41:32.196Z,99185.13
2022-11-08T01:45:04.896Z,99167.00
2022-11-08T01:48:17.485Z,99172.16
2022-11-08T01:51:34.519Z,99181.83
2022-11-08T01:54:51.900Z,99180.25
2022-11-08T01:58:08.742Z,99178.66
2022-11-08T02:01:20.781Z,99180.81
2022-11-08T02:04:33.149Z,99182.69
2022-11-08T02:07:45.108Z,99181.67
2022-11-08T02:10:58.806Z,99172.00
2022-11-08T02:14:12.170Z,99176.20
2022-11-08T02:17:26.406Z,99172.64
2022-11-08T02:20:39.069Z,99162.68
2022-11-08T02:23:55.341Z,99165.52
2022-11-08T02:27:08.378Z,99165.41
2022-11-08T02:30:20.178Z,99163.73
2022-11-08T02:33:32.747Z,99161.00
2022-11-08T02:36:44.492Z,99161.21
2022-11-08T02:39:56.606Z,99166.47
2022-11-08T02:43:08.309Z,99164.29
2022-11-08T02:46:20.208Z,99165.42
2022-11-08T02:49:31.932Z,99167.67
2022-11-08T02:52:43.761Z,99172.94
2022-11-08T02:55:56.054Z,99168.05
2022-11-08T02:59:07.863Z,99167.98
2022-11-08T03:02:19.854Z,99172.11
2022-11-08T03:05:33.348Z,99177.16
2022-11-08T03:08:46.472Z,99170.61
2022-11-08T03:11:58.710Z,99177.06
2022-11-08T03:15:14.179Z,99178.50
2022-11-08T03:18:26.007Z,99177.16
2022-11-08T03:21:37.815Z,99179.23
2022-11-08T03:24:49.752Z,99179.71
2022-11-08T03:28:01.552Z,99180.36
2022-11-08T03:31:13.595Z,99173.33
2022-11-08T03:34:25.399Z,99176.78
2022-11-08T03:37:38.302Z,99181.87
2022-11-08T03:40:51.131Z,99178.48
2022-11-08T03:44:06.050Z,99179.51
2022-11-08T03:47:17.867Z,99172.48
2022-11-08T03:50:29.699Z,99179.23
2022-11-08T03:53:41.601Z,99181.11
2022-11-08T03:56:53.445Z,99186.38
2022-11-08T04:00:05.332Z,99175.11
2022-11-08T04:03:19.105Z,99174.35
2022-11-08T04:06:31.119Z,99174.25
2022-11-08T04:09:42.841Z,99178.75
2022-11-08T04:13:09.194Z,99179.78
2022-11-08T04:16:20.963Z,99176.59
2022-11-08T04:19:52.786Z,99176.02
2022-11-08T04:23:04.519Z,99181.73
2022-11-08T04:26:16.507Z,99184.45
2022-11-08T04:29:28.343Z,99178.64
2022-11-08T04:32:40.046Z,99179.76
2022-11-08T04:35:52.538Z,99181.53
2022-11-08T04:39:04.250Z,99174.87
2022-11-08T04:42:15.979Z,99173.00
2022-11-08T04:45:27.918Z,99166.79
2022-11-08T04:48:40.483Z,99173.42
2022-11-08T04:51:52.199Z,99143.88
2022-11-08T04:55:04.017Z,99165.02
2022-11-08T04:58:16.093Z,99165.12
2022-11-08T05:01:31.331Z,99158.06
2022-11-08T05:04:43.169Z,99153.86
2022-11-08T05:07:55.165Z,99168.11
2022-11-08T05:11:12.965Z,99162.00
2022-11-08T05:14:25.075Z,99155.89
2022-11-08T05:17:36.780Z,99152.52
2022-11-08T05:21:03.001Z,99151.59
2022-11-08T05:24:18.661Z,99157.95
2022-11-08T05:27:30.556Z,99153.63
2022-11-08T05:30:42.321Z,99150.83
2022-11-08T05:33:54.691Z,99156.09
2022-11-08T05:37:06.439Z,99156.74
2022-11-08T05:40:19.590Z,99163.77
2022-11-08T05:43:31.849Z,99173.52
2022-11-08T05:46:43.680Z,99174.53
2022-11-08T05:49:55.411Z,99172.86
2022-11-08T05:53:07.827Z,99180.84
2022-11-08T05:56:20.577Z,99179.98
2022-11-08T05:59:32.468Z,99183.27
2022-11-08T06:02:44.455Z,99184.38
2022-11-08T06:05:56.410Z,99182.70
2022-11-08T06:09:08.708Z,99187.95
2022-11-08T06:12:20.460Z,99189.47
2022-11-08T06:15:32.435Z,99183.77
2022-11-08T06:18:45.674Z,99187.80
2022-11-08T06:21:57.576Z,99191.78
2022-11-08T06:25:10.408Z,99191.31
2022-11-08T06:28:22.213Z,99193.48
2022-11-08T06:31:34.025Z,99195.75
2022-11-08T06:34:46.016Z,99197.05
2022-11-08T06:38:01.216Z,99202.89
2022-11-08T06:41:11.822Z,99201.77
2022-11-08T06:44:23.609Z,99197.82
2022-11-08T06:47:35.409Z,99206.09
2022-11-08T06:50:48.281Z,99204.80
2022-11-08T06:54:00.158Z,99211.35
2022-11-08T06:57:12.148Z,99210.70
2022-11-08T07:00:26.077Z,99215.76
2022-11-08T07:03:38.116Z,99218.86
2022-11-08T07:06:50.059Z,99221.86
2022-11-08T07:10:03.966Z,99215.47
2022-11-08T07:13:19.643Z,99217.13
2022-11-08T07:16:31.835Z,99213.07
2022-11-08T07:19:43.777Z,99214.81
2022-11-08T07:22:55.676Z,99207.06
2022-11-08T07:26:13.086Z,99209.11
2022-11-08T07:29:25.066Z,99213.81
2022-11-08T07:32:36.803Z,99211.86
2022-11-08T07:35:51.221Z,99213.02
2022-11-08T07:39:06.565Z,99216.68
2022-11-08T07:42:17.246Z,99212.69
2022-11-08T07:45:31.559Z,99209.22
2022-11-08T07:48:43.298Z,99205.82
2022-11-08T07:51:55.084Z,99195.38
2022-11-08T07:55:07.053Z,99189.79
2022-11-08T07:58:19.312Z,99188.70
2022-11-08T08:01:31.216Z,99183.92
2022-11-08T08:04:43.211Z,99173.13
2022-11-08T08:07:57.374Z,99175.61
2022-11-08T08:11:09.764Z,99168.03
2022-11-08T08:14:21.656Z,99160.86
2022-11-08T08:17:33.568Z,99163.14
2022-11-08T11:25:02.556Z,99006.22
2022-11-08T14:53:50.894Z,98940.86
2022-11-08T14:57:06.410Z,98936.77
2022-11-08T15:03:25.417Z,98904.42
2022-11-08T15:29:21.524Z,98922.92
2022-11-08T15:32:40.075Z,98916.33
2022-11-08T15:35:56.380Z,98928.19
2022-11-08T15:39:22.204Z,98929.58
2022-11-08T15:42:34.429Z,98931.48
2022-11-08T15:45:57.844Z,98928.50
2022-11-08T15:49:24.238Z,98926.20
2022-11-08T15:52:36.164Z,98924.52
2022-11-08T15:55:52.937Z,98924.77
2022-11-08T15:59:04.812Z,98923.02
2022-11-08T16:02:22.086Z,98931.76
2022-11-08T16:05:36.058Z,98925.22
2022-11-08T16:08:48.458Z,98921.76
2022-11-08T16:12:01.067Z,98923.33
2022-11-08T16:15:17.690Z,98925.69
2022-11-08T16:18:31.831Z,98932.73
2022-11-08T16:21:43.704Z,98929.13
2022-11-08T16:24:55.649Z,98936.71
2022-11-08T16:28:10.594Z,98930.00
2022-11-08T16:31:23.441Z,98938.80
2022-11-08T16:34:35.438Z,98943.45
2022-11-08T16:37:48.331Z,98939.66
2022-11-08T16:41:00.890Z,98944.42
2022-11-08T16:44:13.825Z,98947.08
2022-11-08T16:47:26.535Z,98940.92
2022-11-08T16:50:40.419Z,98943.44
2022-11-08T16:53:53.444Z,98944.99
2022-11-08T16:57:32.952Z,98940.23
2022-11-08T17:00:23.683Z,98940.64
2022-11-08T17:03:35.598Z,98932.67
2022-11-08T17:06:47.515Z,98941.19
2022-11-08T17:09:59.552Z,98944.80
2022-11-08T17:13:11.754Z,98939.34
2022-11-08T17:16:24.167Z,98939.31
2022-11-08T17:19:36.098Z,98935.22
2022-11-08T17:22:49.294Z,98940.02
2022-11-08T17:26:01.175Z,98941.42
2022-11-08T17:29:13.145Z,98942.00
2022-11-08T17:32:25.088Z,98940.04
2022-11-08T17:35:42.477Z,98943.12
2022-11-08T17:38:50.922Z,98948.83
2022-11-08T17:42:02.822Z,98949.58
2022-11-08T17:45:18.253Z,98957.64
2022-11-08T17:48:30.387Z,98955.27
2022-11-08T17:51:42.394Z,98950.92
2022-11-08T17:54:54.562Z,98943.06
2022-11-08T17:58:06.846Z,98951.97
2022-11-08T18:01:19.341Z,98948.31
2022-11-08T18:04:31.325Z,98953.61
2022-11-08T18:07:43.217Z,98958.59
2022-11-08T18:10:55.666Z,98953.42
2022-11-08T18:14:07.977Z,98965.83
2022-11-08T18:17:22.134Z,98969.43
2022-11-08T18:20:34.836Z,98960.53
2022-11-08T18:23:50.718Z,98963.17
2022-11-08T18:27:02.961Z,98964.07
2022-11-08T18:30:18.078Z,98961.56
2022-11-08T18:33:30.026Z,98960.71
2022-11-08T18:36:42.313Z,98971.88
2022-11-08T18:39:54.179Z,98963.94
2022-11-08T18:43:06.121Z,98964.59
2022-11-08T18:46:24.062Z,98963.44
2022-11-08T18:49:36.083Z,98953.93
2022-11-08T18:52:49.227Z,98962.97
2022-11-08T18:56:01.277Z,98969.17
2022-11-08T18:59:13.481Z,98966.90
2022-11-08T19:02:25.488Z,98975.72
2022-11-08T19:05:38.170Z,98975.98
2022-11-08T19:08:50.397Z,98977.44
2022-11-08T19:12:05.916Z,98977.22
2022-11-08T19:15:17.534Z,98973.14
2022-11-08T19:18:29.818Z,98978.44
2022-11-08T19:21:43.721Z,98975.47
2022-11-08T19:24:55.707Z,98984.36
2022-11-08T19:28:07.655Z,98991.84
2022-11-08T19:31:21.196Z,98986.91
2022-11-08T19:34:33.648Z,98988.97
2022-11-08T19:37:45.642Z,98991.70
2022-11-08T19:40:57.785Z,98995.56
2022-11-08T19:44:14.664Z,99001.92
2022-11-08T19:47:29.540Z,98993.66
2022-11-08T19:50:43.502Z,98995.81
2022-11-08T19:54:00.763Z,99000.38
2022-11-08T19:57:14.475Z,99005.20
2022-11-08T20:00:28.496Z,99009.64
2022-11-08T20:03:42.390Z,99012.64
2022-11-08T20:06:56.259Z,99014.69
2022-11-08T20:10:12.251Z,99021.89
2022-11-08T20:13:25.869Z,99018.27
2022-11-08T20:16:43.041Z,99011.33
2022-11-08T20:19:55.500Z,99015.38
2022-11-08T20:23:07.612Z,99018.88
2022-11-08T20:26:22.693Z,99023.30
2022-11-08T20:29:35.590Z,99010.81
2022-11-08T20:32:47.423Z,99010.69
2022-11-08T20:35:59.301Z,99018.11
2022-11-08T20:39:12.107Z,99012.95
2022-11-08T20:42:24.147Z,99014.73
2022-11-08T20:45:35.907Z,99009.92
2022-11-08T20:48:52.005Z,99017.13
2022-11-08T20:52:02.571Z,99014.34
2022-11-08T20:55:15.702Z,99015.92
2022-11-08T20:58:27.587Z,99015.41
2022-11-08T21:01:39.835Z,99009.39
2022-11-08T21:04:51.803Z,99016.95
2022-11-08T21:08:56.510Z,99012.86
2022-11-08T21:11:23.140Z,99012.26
2022-11-08T21:14:35.254Z,99018.60
2022-11-08T21:17:47.307Z,99012.92
2022-11-08T21:21:09.427Z,99015.17
2022-11-08T21:24:21.594Z,99007.73
2022-11-08T21:27:35.631Z,99007.33
2022-11-08T21:30:51.402Z,99015.09
2022-11-08T21:34:03.517Z,99007.27
2022-11-08T21:37:16.376Z,99011.08
2022-11-08T21:40:28.430Z,99012.98
2022-11-08T21:43:43.278Z,99017.77
2022-11-08T21:46:55.403Z,99020.52
2022-11-08T21:50:07.457Z,99015.08
2022-11-08T21:53:19.854Z,99017.19
2022-11-08T21:56:36.089Z,99016.58
2022-11-08T21:59:48.096Z,99017.86
2022-11-08T22:03:00.384Z,99016.77
2022-11-08T22:06:13.034Z,99013.96
2022-11-08T22:09:25.439Z,99010.39
2022-11-08T22:12:37.789Z,99009.13
2022-11-08T22:15:51.549Z,99006.72
2022-11-08T22:19:05.200Z,99012.20
2022-11-08T22:22:17.921Z,99009.26
2022-11-08T22:25:29.970Z,99014.34
2022-11-08T22:28:41.976Z,99012.09
2022-11-08T22:31:54.948Z,99008.22
2022-11-08T22:35:06.880Z,99016.13
2022-11-08T22:38:20.067Z,99014.77
2022-11-08T22:41:32.830Z,99012.64
2022-11-08T22:44:44.937Z,99015.61
2022-11-08T22:47:57.022Z,99014.13
2022-11-08T22:51:09.433Z,99008.64
2022-11-08T22:54:21.542Z,99012.66
2022-11-08T22:57:33.903Z,99011.28
2022-11-08T23:00:46.481Z,99019.41
2022-11-08T23:03:58.567Z,99017.93
2022-11-08T23:07:10.650Z,99022.97
2022-11-08T23:10:23.091Z,99015.50
2022-11-08T23:13:50.158Z,99013.48
2022-11-08T23:17:02.153Z,99016.22
2022-11-08T23:20:30.887Z,99017.30
2022-11-08T23:23:57.635Z,99016.75
2022-11-08T23:27:25.522Z,98998.53
2022-11-08T23:30:51.896Z,99013.06
2022-11-08T23:34:04.357Z,99014.33
2022-11-08T23:37:16.289Z,99018.11
2022-11-08T23:40:43.157Z,99021.89
2022-11-08T23:44:10.087Z,99021.38
2022-11-08T23:47:22.096Z,99018.52
2022-11-08T23:50:34.250Z,99020.41
2022-11-08T23:53:45.921Z,99027.27
2022-11-08T23:56:58.733Z,99025.90
